sensor_id;sensor_type;location;lat;lon;timestamp;P1;durP1;ratioP1;P2;durP2;ratioP2
73382;SDS011;61600;48.126;11.542;2023-09-18T00:00:46;5.90;;;2.80;;
73382;SDS011;61600;48.126;11.542;2023-09-18T00:03:15;4.75;;;2.80;;
73382;SDS011;61600;48.126;11.542;2023-09-18T00:05:43;4.43;;;2.30;;
73382;SDS011;61600;48.126;11.542;2023-09-18T00:08:08;5.75;;;2.40;;
73382;SDS011;61600;48.126;11.542;2023-09-18T00:10:34;5.45;;;2.80;;
73382;SDS011;61600;48.126;11.542;2023-09-18T00:13:01;6.40;;;2.72;;
73382;SDS011;61600;48.126;11.542;2023-09-18T00:15:27;4.35;;;2.58;;
73382;SDS011;61600;48.126;11.542;2023-09-18T00:17:53;7.22;;;2.88;;
73382;SDS011;61600;48.126;11.542;2023-09-18T00:20:19;4.60;;;2.80;;
73382;SDS011;61600;48.126;11.542;2023-09-18T00:22:45;5.25;;;2.53;;
73382;SDS011;61600;48.126;11.542;2023-09-18T00:25:12;5.25;;;2.55;;
73382;SDS011;61600;48.126;11.542;2023-09-18T00:30:04;5.53;;;2.33;;
73382;SDS011;61600;48.126;11.542;2023-09-18T00:34:56;4.20;;;2.10;;
73382;SDS011;61600;48.126;11.542;2023-09-18T00:37:21;5.07;;;2.47;;
73382;SDS011;61600;48.126;11.542;2023-09-18T00:39:47;3.55;;;2.17;;
73382;SDS011;61600;48.126;11.542;2023-09-18T00:42:15;4.47;;;2.13;;
73382;SDS011;61600;48.126;11.542;2023-09-18T00:44:43;5.32;;;2.50;;
73382;SDS011;61600;48.126;11.542;2023-09-18T00:47:09;4.13;;;2.42;;
73382;SDS011;61600;48.126;11.542;2023-09-18T00:49:36;6.93;;;2.38;;
73382;SDS011;61600;48.126;11.542;2023-09-18T00:52:06;3.50;;;2.25;;
73382;SDS011;61600;48.126;11.542;2023-09-18T00:54:34;4.65;;;2.30;;
73382;SDS011;61600;48.126;11.542;2023-09-18T00:57:02;5.22;;;2.20;;
73382;SDS011;61600;48.126;11.542;2023-09-18T00:59:29;3.70;;;2.17;;
73382;SDS011;61600;48.126;11.542;2023-09-18T01:01:56;5.70;;;2.20;;
73382;SDS011;61600;48.126;11.542;2023-09-18T01:04:22;4.85;;;2.60;;
73382;SDS011;61600;48.126;11.542;2023-09-18T01:06:50;4.72;;;2.30;;
73382;SDS011;61600;48.126;11.542;2023-09-18T01:09:18;3.88;;;2.10;;
73382;SDS011;61600;48.126;11.542;2023-09-18T01:14:41;4.15;;;2.20;;
73382;SDS011;61600;48.126;11.542;2023-09-18T01:17:15;4.75;;;2.53;;
73382;SDS011;61600;48.126;11.542;2023-09-18T01:22:11;4.72;;;2.55;;
73382;SDS011;61600;48.126;11.542;2023-09-18T01:24:40;4.63;;;2.33;;
73382;SDS011;61600;48.126;11.542;2023-09-18T01:27:11;6.20;;;2.78;;
73382;SDS011;61600;48.126;11.542;2023-09-18T01:29:38;3.80;;;2.15;;
73382;SDS011;61600;48.126;11.542;2023-09-18T01:32:04;4.70;;;2.28;;
73382;SDS011;61600;48.126;11.542;2023-09-18T01:34:34;5.32;;;2.40;;
73382;SDS011;61600;48.126;11.542;2023-09-18T01:37:05;3.17;;;1.98;;
73382;SDS011;61600;48.126;11.542;2023-09-18T01:39:32;5.03;;;2.13;;
73382;SDS011;61600;48.126;11.542;2023-09-18T01:42:00;3.40;;;2.13;;
73382;SDS011;61600;48.126;11.542;2023-09-18T01:44:28;3.50;;;2.03;;
73382;SDS011;61600;48.126;11.542;2023-09-18T01:46:54;4.00;;;2.20;;
73382;SDS011;61600;48.126;11.542;2023-09-18T01:49:27;5.38;;;2.08;;
73382;SDS011;61600;48.126;11.542;2023-09-18T01:51:57;4.82;;;2.38;;
73382;SDS011;61600;48.126;11.542;2023-09-18T01:54:23;6.55;;;2.05;;
73382;SDS011;61600;48.126;11.542;2023-09-18T01:56:50;5.32;;;2.33;;
73382;SDS011;61600;48.126;11.542;2023-09-18T01:59:17;4.13;;;2.20;;
73382;SDS011;61600;48.126;11.542;2023-09-18T02:01:45;3.97;;;2.17;;
73382;SDS011;61600;48.126;11.542;2023-09-18T02:04:11;5.45;;;2.53;;
73382;SDS011;61600;48.126;11.542;2023-09-18T02:06:37;3.20;;;2.13;;
73382;SDS011;61600;48.126;11.542;2023-09-18T02:09:03;5.90;;;2.40;;
73382;SDS011;61600;48.126;11.542;2023-09-18T02:11:29;4.28;;;2.20;;
73382;SDS011;61600;48.126;11.542;2023-09-18T02:13:54;4.65;;;2.20;;
73382;SDS011;61600;48.126;11.542;2023-09-18T02:16:21;3.35;;;1.98;;
73382;SDS011;61600;48.126;11.542;2023-09-18T02:18:48;4.60;;;1.80;;
73382;SDS011;61600;48.126;11.542;2023-09-18T02:21:20;3.80;;;2.30;;
73382;SDS011;61600;48.126;11.542;2023-09-18T02:23:49;4.50;;;2.25;;
73382;SDS011;61600;48.126;11.542;2023-09-18T02:26:17;4.47;;;2.22;;
73382;SDS011;61600;48.126;11.542;2023-09-18T02:28:43;4.22;;;1.95;;
73382;SDS011;61600;48.126;11.542;2023-09-18T02:31:09;3.63;;;2.20;;
73382;SDS011;61600;48.126;11.542;2023-09-18T02:33:34;3.63;;;2.15;;
73382;SDS011;61600;48.126;11.542;2023-09-18T02:36:00;3.63;;;1.95;;
73382;SDS011;61600;48.126;11.542;2023-09-18T02:38:27;4.97;;;1.90;;
73382;SDS011;61600;48.126;11.542;2023-09-18T02:40:53;4.15;;;2.10;;
73382;SDS011;61600;48.126;11.542;2023-09-18T02:43:20;4.95;;;2.35;;
73382;SDS011;61600;48.126;11.542;2023-09-18T02:45:46;6.88;;;2.40;;
73382;SDS011;61600;48.126;11.542;2023-09-18T02:48:12;4.03;;;2.10;;
73382;SDS011;61600;48.126;11.542;2023-09-18T02:50:37;5.32;;;2.13;;
73382;SDS011;61600;48.126;11.542;2023-09-18T02:53:05;4.72;;;2.00;;
73382;SDS011;61600;48.126;11.542;2023-09-18T02:55:32;4.85;;;2.63;;
73382;SDS011;61600;48.126;11.542;2023-09-18T02:57:57;3.55;;;2.10;;
73382;SDS011;61600;48.126;11.542;2023-09-18T03:00:24;5.45;;;2.20;;
73382;SDS011;61600;48.126;11.542;2023-09-18T03:02:50;7.28;;;2.78;;
73382;SDS011;61600;48.126;11.542;2023-09-18T03:05:15;6.20;;;2.70;;
73382;SDS011;61600;48.126;11.542;2023-09-18T03:07:41;5.07;;;2.33;;
73382;SDS011;61600;48.126;11.542;2023-09-18T03:10:07;4.63;;;2.15;;
73382;SDS011;61600;48.126;11.542;2023-09-18T03:12:34;7.07;;;2.20;;
73382;SDS011;61600;48.126;11.542;2023-09-18T03:15:00;4.10;;;2.33;;
73382;SDS011;61600;48.126;11.542;2023-09-18T03:17:26;4.45;;;2.47;;
73382;SDS011;61600;48.126;11.542;2023-09-18T03:19:51;4.25;;;2.25;;
73382;SDS011;61600;48.126;11.542;2023-09-18T03:22:17;5.10;;;1.90;;
73382;SDS011;61600;48.126;11.542;2023-09-18T03:24:43;5.22;;;2.30;;
73382;SDS011;61600;48.126;11.542;2023-09-18T03:27:09;6.30;;;2.10;;
73382;SDS011;61600;48.126;11.542;2023-09-18T03:29:34;4.28;;;2.08;;
73382;SDS011;61600;48.126;11.542;2023-09-18T03:32:00;4.53;;;1.92;;
73382;SDS011;61600;48.126;11.542;2023-09-18T03:34:26;6.35;;;3.10;;
73382;SDS011;61600;48.126;11.542;2023-09-18T03:36:52;3.90;;;2.13;;
73382;SDS011;61600;48.126;11.542;2023-09-18T03:39:18;5.30;;;2.40;;
73382;SDS011;61600;48.126;11.542;2023-09-18T03:41:45;5.40;;;2.50;;
73382;SDS011;61600;48.126;11.542;2023-09-18T03:44:11;5.55;;;2.78;;
73382;SDS011;61600;48.126;11.542;2023-09-18T03:46:37;7.90;;;2.70;;
73382;SDS011;61600;48.126;11.542;2023-09-18T03:49:02;3.58;;;2.08;;
73382;SDS011;61600;48.126;11.542;2023-09-18T03:51:29;5.93;;;2.47;;
73382;SDS011;61600;48.126;11.542;2023-09-18T03:53:55;6.05;;;2.40;;
73382;SDS011;61600;48.126;11.542;2023-09-18T03:56:21;4.25;;;1.88;;
73382;SDS011;61600;48.126;11.542;2023-09-18T04:01:15;5.60;;;2.50;;
73382;SDS011;61600;48.126;11.542;2023-09-18T04:03:41;6.93;;;2.42;;
73382;SDS011;61600;48.126;11.542;2023-09-18T04:06:08;5.35;;;2.63;;
73382;SDS011;61600;48.126;11.542;2023-09-18T04:08:33;14.73;;;3.38;;
73382;SDS011;61600;48.126;11.542;2023-09-18T04:11:00;5.65;;;2.33;;
73382;SDS011;61600;48.126;11.542;2023-09-18T04:13:26;21.63;;;6.15;;
73382;SDS011;61600;48.126;11.542;2023-09-18T04:15:52;12.82;;;3.78;;
73382;SDS011;61600;48.126;11.542;2023-09-18T04:18:22;7.78;;;2.42;;
73382;SDS011;61600;48.126;11.542;2023-09-18T04:20:49;10.07;;;3.03;;
73382;SDS011;61600;48.126;11.542;2023-09-18T04:23:23;8.93;;;3.17;;
73382;SDS011;61600;48.126;11.542;2023-09-18T04:25:51;6.60;;;2.42;;
73382;SDS011;61600;48.126;11.542;2023-09-18T04:28:23;6.55;;;2.67;;
73382;SDS011;61600;48.126;11.542;2023-09-18T04:30:49;6.65;;;2.90;;
73382;SDS011;61600;48.126;11.542;2023-09-18T04:33:15;7.13;;;2.50;;
73382;SDS011;61600;48.126;11.542;2023-09-18T04:35:42;5.60;;;2.40;;
73382;SDS011;61600;48.126;11.542;2023-09-18T04:40:36;6.88;;;2.08;;
73382;SDS011;61600;48.126;11.542;2023-09-18T04:43:02;9.30;;;2.42;;
73382;SDS011;61600;48.126;11.542;2023-09-18T04:45:31;6.03;;;2.58;;
73382;SDS011;61600;48.126;11.542;2023-09-18T04:47:59;6.30;;;2.22;;
73382;SDS011;61600;48.126;11.542;2023-09-18T04:50:24;4.28;;;2.40;;
73382;SDS011;61600;48.126;11.542;2023-09-18T04:52:52;5.28;;;2.10;;
73382;SDS011;61600;48.126;11.542;2023-09-18T04:55:19;6.45;;;3.10;;
73382;SDS011;61600;48.126;11.542;2023-09-18T04:57:46;10.23;;;3.17;;
73382;SDS011;61600;48.126;11.542;2023-09-18T05:00:12;4.63;;;2.17;;
73382;SDS011;61600;48.126;11.542;2023-09-18T05:02:39;5.63;;;2.40;;
73382;SDS011;61600;48.126;11.542;2023-09-18T05:05:05;5.63;;;2.40;;
73382;SDS011;61600;48.126;11.542;2023-09-18T05:07:34;7.53;;;2.42;;
73382;SDS011;61600;48.126;11.542;2023-09-18T05:10:00;5.55;;;3.03;;
73382;SDS011;61600;48.126;11.542;2023-09-18T05:12:26;7.18;;;2.90;;
73382;SDS011;61600;48.126;11.542;2023-09-18T05:14:52;6.55;;;3.95;;
73382;SDS011;61600;48.126;11.542;2023-09-18T05:17:18;6.25;;;3.25;;
73382;SDS011;61600;48.126;11.542;2023-09-18T05:19:44;5.82;;;3.38;;
73382;SDS011;61600;48.126;11.542;2023-09-18T05:22:10;4.93;;;2.80;;
73382;SDS011;61600;48.126;11.542;2023-09-18T05:24:37;8.00;;;2.95;;
73382;SDS011;61600;48.126;11.542;2023-09-18T05:27:04;3.83;;;2.00;;
73382;SDS011;61600;48.126;11.542;2023-09-18T05:29:32;8.02;;;2.95;;
73382;SDS011;61600;48.126;11.542;2023-09-18T05:31:58;6.22;;;2.40;;
73382;SDS011;61600;48.126;11.542;2023-09-18T05:34:23;6.10;;;2.90;;
73382;SDS011;61600;48.126;11.542;2023-09-18T05:36:49;5.22;;;2.60;;
73382;SDS011;61600;48.126;11.542;2023-09-18T05:39:15;6.25;;;2.90;;
73382;SDS011;61600;48.126;11.542;2023-09-18T05:41:42;5.75;;;2.80;;
73382;SDS011;61600;48.126;11.542;2023-09-18T05:44:08;5.95;;;2.40;;
73382;SDS011;61600;48.126;11.542;2023-09-18T05:46:34;4.88;;;2.45;;
73382;SDS011;61600;48.126;11.542;2023-09-18T05:49:00;8.07;;;3.60;;
73382;SDS011;61600;48.126;11.542;2023-09-18T05:51:34;6.72;;;3.53;;
73382;SDS011;61600;48.126;11.542;2023-09-18T05:54:00;7.85;;;2.85;;
73382;SDS011;61600;48.126;11.542;2023-09-18T05:58:53;6.25;;;2.63;;
73382;SDS011;61600;48.126;11.542;2023-09-18T06:01:20;9.80;;;3.13;;
73382;SDS011;61600;48.126;11.542;2023-09-18T06:03:46;8.60;;;2.97;;
73382;SDS011;61600;48.126;11.542;2023-09-18T06:06:13;10.10;;;2.53;;
73382;SDS011;61600;48.126;11.542;2023-09-18T06:08:39;10.27;;;2.85;;
73382;SDS011;61600;48.126;11.542;2023-09-18T06:11:05;10.30;;;3.83;;
73382;SDS011;61600;48.126;11.542;2023-09-18T06:13:31;12.00;;;3.10;;
73382;SDS011;61600;48.126;11.542;2023-09-18T06:15:58;11.73;;;2.97;;
73382;SDS011;61600;48.126;11.542;2023-09-18T06:18:23;8.73;;;3.05;;
73382;SDS011;61600;48.126;11.542;2023-09-18T06:20:49;10.80;;;2.80;;
73382;SDS011;61600;48.126;11.542;2023-09-18T06:23:16;8.05;;;2.67;;
73382;SDS011;61600;48.126;11.542;2023-09-18T06:25:42;7.25;;;3.00;;
73382;SDS011;61600;48.126;11.542;2023-09-18T06:28:08;5.60;;;2.60;;
73382;SDS011;61600;48.126;11.542;2023-09-18T06:33:04;12.63;;;2.90;;
73382;SDS011;61600;48.126;11.542;2023-09-18T06:35:30;6.63;;;3.25;;
73382;SDS011;61600;48.126;11.542;2023-09-18T06:37:58;8.00;;;2.88;;
73382;SDS011;61600;48.126;11.542;2023-09-18T06:42:51;14.00;;;2.88;;
73382;SDS011;61600;48.126;11.542;2023-09-18T06:45:17;7.30;;;2.97;;
73382;SDS011;61600;48.126;11.542;2023-09-18T06:47:43;5.03;;;2.70;;
73382;SDS011;61600;48.126;11.542;2023-09-18T06:50:09;7.65;;;3.67;;
73382;SDS011;61600;48.126;11.542;2023-09-18T06:52:37;8.35;;;2.85;;
73382;SDS011;61600;48.126;11.542;2023-09-18T06:55:03;4.97;;;2.75;;
73382;SDS011;61600;48.126;11.542;2023-09-18T06:57:30;7.68;;;2.78;;
73382;SDS011;61600;48.126;11.542;2023-09-18T06:59:56;6.63;;;2.80;;
73382;SDS011;61600;48.126;11.542;2023-09-18T07:02:22;9.95;;;3.03;;
73382;SDS011;61600;48.126;11.542;2023-09-18T07:04:48;8.88;;;3.00;;
73382;SDS011;61600;48.126;11.542;2023-09-18T07:07:14;8.15;;;2.88;;
73382;SDS011;61600;48.126;11.542;2023-09-18T07:09:41;11.05;;;3.40;;
73382;SDS011;61600;48.126;11.542;2023-09-18T07:12:08;7.82;;;2.90;;
73382;SDS011;61600;48.126;11.542;2023-09-18T07:14:36;9.57;;;3.75;;
73382;SDS011;61600;48.126;11.542;2023-09-18T07:17:04;10.00;;;3.05;;
73382;SDS011;61600;48.126;11.542;2023-09-18T07:19:29;7.47;;;3.40;;
73382;SDS011;61600;48.126;11.542;2023-09-18T07:21:55;7.55;;;2.50;;
73382;SDS011;61600;48.126;11.542;2023-09-18T07:24:21;9.05;;;2.70;;
73382;SDS011;61600;48.126;11.542;2023-09-18T07:26:47;7.15;;;2.67;;
73382;SDS011;61600;48.126;11.542;2023-09-18T07:29:14;10.20;;;2.92;;
73382;SDS011;61600;48.126;11.542;2023-09-18T07:31:44;7.00;;;2.50;;
73382;SDS011;61600;48.126;11.542;2023-09-18T07:34:10;6.40;;;2.50;;
73382;SDS011;61600;48.126;11.542;2023-09-18T07:36:36;6.05;;;2.80;;
73382;SDS011;61600;48.126;11.542;2023-09-18T07:39:02;9.50;;;2.90;;
73382;SDS011;61600;48.126;11.542;2023-09-18T07:41:29;11.35;;;3.13;;
73382;SDS011;61600;48.126;11.542;2023-09-18T07:43:56;9.15;;;2.90;;
73382;SDS011;61600;48.126;11.542;2023-09-18T07:46:24;6.72;;;2.80;;
73382;SDS011;61600;48.126;11.542;2023-09-18T07:48:50;5.20;;;2.80;;
73382;SDS011;61600;48.126;11.542;2023-09-18T07:51:16;11.55;;;3.40;;
73382;SDS011;61600;48.126;11.542;2023-09-18T07:53:42;8.18;;;2.85;;
73382;SDS011;61600;48.126;11.542;2023-09-18T07:56:08;7.93;;;3.13;;
73382;SDS011;61600;48.126;11.542;2023-09-18T07:58:34;7.13;;;2.85;;
73382;SDS011;61600;48.126;11.542;2023-09-18T08:01:04;8.10;;;2.58;;
73382;SDS011;61600;48.126;11.542;2023-09-18T08:03:31;9.13;;;2.92;;
73382;SDS011;61600;48.126;11.542;2023-09-18T08:05:58;4.40;;;2.65;;
73382;SDS011;61600;48.126;11.542;2023-09-18T08:08:24;4.35;;;2.60;;
73382;SDS011;61600;48.126;11.542;2023-09-18T08:10:51;7.30;;;2.75;;
73382;SDS011;61600;48.126;11.542;2023-09-18T08:13:17;9.30;;;2.88;;
73382;SDS011;61600;48.126;11.542;2023-09-18T08:15:45;5.75;;;2.60;;
73382;SDS011;61600;48.126;11.542;2023-09-18T08:18:11;5.68;;;3.00;;
73382;SDS011;61600;48.126;11.542;2023-09-18T08:20:45;4.10;;;2.58;;
73382;SDS011;61600;48.126;11.542;2023-09-18T08:23:11;8.05;;;3.30;;
73382;SDS011;61600;48.126;11.542;2023-09-18T08:25:37;6.45;;;2.80;;
73382;SDS011;61600;48.126;11.542;2023-09-18T08:28:05;8.63;;;3.53;;
73382;SDS011;61600;48.126;11.542;2023-09-18T08:30:32;6.55;;;3.00;;
73382;SDS011;61600;48.126;11.542;2023-09-18T08:32:58;8.68;;;3.15;;
73382;SDS011;61600;48.126;11.542;2023-09-18T08:35:23;7.00;;;3.40;;
73382;SDS011;61600;48.126;11.542;2023-09-18T08:37:54;7.95;;;3.10;;
73382;SDS011;61600;48.126;11.542;2023-09-18T08:40:20;5.78;;;3.28;;
73382;SDS011;61600;48.126;11.542;2023-09-18T08:42:46;6.30;;;2.83;;
73382;SDS011;61600;48.126;11.542;2023-09-18T08:45:22;6.68;;;3.17;;
73382;SDS011;61600;48.126;11.542;2023-09-18T08:47:53;8.38;;;2.80;;
73382;SDS011;61600;48.126;11.542;2023-09-18T08:50:19;7.55;;;2.70;;
73382;SDS011;61600;48.126;11.542;2023-09-18T08:55:12;5.68;;;2.67;;
73382;SDS011;61600;48.126;11.542;2023-09-18T08:57:39;8.15;;;2.90;;
73382;SDS011;61600;48.126;11.542;2023-09-18T09:00:07;5.68;;;2.65;;
73382;SDS011;61600;48.126;11.542;2023-09-18T09:02:37;8.32;;;2.97;;
73382;SDS011;61600;48.126;11.542;2023-09-18T09:05:03;6.07;;;3.20;;
73382;SDS011;61600;48.126;11.542;2023-09-18T09:07:30;9.48;;;3.08;;
73382;SDS011;61600;48.126;11.542;2023-09-18T09:09:56;5.68;;;2.78;;
73382;SDS011;61600;48.126;11.542;2023-09-18T09:15:28;6.30;;;3.00;;
73382;SDS011;61600;48.126;11.542;2023-09-18T09:18:12;6.32;;;2.88;;
73382;SDS011;61600;48.126;11.542;2023-09-18T09:21:03;13.43;;;2.97;;
73382;SDS011;61600;48.126;11.542;2023-09-18T09:23:52;7.57;;;2.60;;
73382;SDS011;61600;48.126;11.542;2023-09-18T09:26:19;6.43;;;2.65;;
73382;SDS011;61600;48.126;11.542;2023-09-18T09:28:48;6.53;;;2.70;;
73382;SDS011;61600;48.126;11.542;2023-09-18T09:31:28;7.07;;;3.15;;
73382;SDS011;61600;48.126;11.542;2023-09-18T09:33:56;5.60;;;2.83;;
73382;SDS011;61600;48.126;11.542;2023-09-18T09:36:23;7.82;;;2.80;;
73382;SDS011;61600;48.126;11.542;2023-09-18T09:38:54;8.90;;;3.03;;
73382;SDS011;61600;48.126;11.542;2023-09-18T09:41:23;6.05;;;2.90;;
73382;SDS011;61600;48.126;11.542;2023-09-18T09:43:51;10.90;;;3.13;;
73382;SDS011;61600;48.126;11.542;2023-09-18T09:46:17;7.50;;;2.60;;
73382;SDS011;61600;48.126;11.542;2023-09-18T09:49:00;6.82;;;2.80;;
73382;SDS011;61600;48.126;11.542;2023-09-18T09:51:31;6.13;;;2.60;;
73382;SDS011;61600;48.126;11.542;2023-09-18T09:53:58;9.75;;;3.10;;
73382;SDS011;61600;48.126;11.542;2023-09-18T09:56:42;7.50;;;2.88;;
73382;SDS011;61600;48.126;11.542;2023-09-18T09:59:14;7.25;;;2.72;;
73382;SDS011;61600;48.126;11.542;2023-09-18T10:01:41;11.18;;;2.78;;
73382;SDS011;61600;48.126;11.542;2023-09-18T10:04:13;8.68;;;2.90;;
73382;SDS011;61600;48.126;11.542;2023-09-18T10:06:43;7.30;;;2.38;;
73382;SDS011;61600;48.126;11.542;2023-09-18T10:09:12;7.40;;;2.58;;
73382;SDS011;61600;48.126;11.542;2023-09-18T10:11:44;10.57;;;2.45;;
73382;SDS011;61600;48.126;11.542;2023-09-18T10:14:15;6.40;;;2.50;;
73382;SDS011;61600;48.126;11.542;2023-09-18T10:16:51;8.15;;;2.90;;
73382;SDS011;61600;48.126;11.542;2023-09-18T10:19:27;8.25;;;2.40;;
73382;SDS011;61600;48.126;11.542;2023-09-18T10:24:54;7.10;;;2.35;;
73382;SDS011;61600;48.126;11.542;2023-09-18T10:27:26;6.25;;;2.40;;
73382;SDS011;61600;48.126;11.542;2023-09-18T10:29:59;5.97;;;2.05;;
73382;SDS011;61600;48.126;11.542;2023-09-18T10:32:31;9.63;;;2.35;;
73382;SDS011;61600;48.126;11.542;2023-09-18T10:34:59;8.75;;;2.50;;
73382;SDS011;61600;48.126;11.542;2023-09-18T10:37:28;6.10;;;2.20;;
73382;SDS011;61600;48.126;11.542;2023-09-18T10:39:56;6.13;;;2.03;;
73382;SDS011;61600;48.126;11.542;2023-09-18T10:42:24;12.18;;;2.70;;
73382;SDS011;61600;48.126;11.542;2023-09-18T10:44:52;11.20;;;2.45;;
73382;SDS011;61600;48.126;11.542;2023-09-18T10:47:18;8.45;;;2.10;;
73382;SDS011;61600;48.126;11.542;2023-09-18T10:49:45;9.70;;;2.80;;
73382;SDS011;61600;48.126;11.542;2023-09-18T10:52:12;11.75;;;3.13;;
73382;SDS011;61600;48.126;11.542;2023-09-18T10:54:39;9.43;;;2.50;;
73382;SDS011;61600;48.126;11.542;2023-09-18T10:57:05;7.20;;;2.28;;
73382;SDS011;61600;48.126;11.542;2023-09-18T10:59:33;12.07;;;2.60;;
73382;SDS011;61600;48.126;11.542;2023-09-18T11:02:02;7.72;;;2.40;;
73382;SDS011;61600;48.126;11.542;2023-09-18T11:04:33;16.25;;;2.92;;
73382;SDS011;61600;48.126;11.542;2023-09-18T11:09:25;9.57;;;3.20;;
73382;SDS011;61600;48.126;11.542;2023-09-18T11:14:45;16.65;;;2.80;;
73382;SDS011;61600;48.126;11.542;2023-09-18T11:17:31;14.77;;;3.70;;
73382;SDS011;61600;48.126;11.542;2023-09-18T11:22:49;13.88;;;3.05;;
73382;SDS011;61600;48.126;11.542;2023-09-18T11:28:15;7.95;;;2.30;;
73382;SDS011;61600;48.126;11.542;2023-09-18T11:30:50;9.13;;;2.92;;
73382;SDS011;61600;48.126;11.542;2023-09-18T11:33:31;11.43;;;3.20;;
73382;SDS011;61600;48.126;11.542;2023-09-18T11:36:13;7.07;;;3.25;;
73382;SDS011;61600;48.126;11.542;2023-09-18T11:38:55;9.55;;;2.92;;
73382;SDS011;61600;48.126;11.542;2023-09-18T11:41:25;5.93;;;2.33;;
73382;SDS011;61600;48.126;11.542;2023-09-18T11:43:56;3.75;;;1.80;;
73382;SDS011;61600;48.126;11.542;2023-09-18T11:46:48;7.88;;;1.75;;
73382;SDS011;61600;48.126;11.542;2023-09-18T11:49:23;6.10;;;1.70;;
73382;SDS011;61600;48.126;11.542;2023-09-18T11:51:51;6.43;;;1.50;;
73382;SDS011;61600;48.126;11.542;2023-09-18T11:54:18;6.20;;;1.60;;
73382;SDS011;61600;48.126;11.542;2023-09-18T11:56:44;7.00;;;1.50;;
73382;SDS011;61600;48.126;11.542;2023-09-18T12:01:37;4.32;;;1.63;;
73382;SDS011;61600;48.126;11.542;2023-09-18T12:04:06;6.40;;;1.42;;
73382;SDS011;61600;48.126;11.542;2023-09-18T12:06:38;9.63;;;1.45;;
73382;SDS011;61600;48.126;11.542;2023-09-18T12:09:05;4.13;;;1.30;;
73382;SDS011;61600;48.126;11.542;2023-09-18T12:11:32;5.38;;;1.17;;
73382;SDS011;61600;48.126;11.542;2023-09-18T12:16:30;5.45;;;1.30;;
73382;SDS011;61600;48.126;11.542;2023-09-18T12:19:03;4.85;;;1.27;;
73382;SDS011;61600;48.126;11.542;2023-09-18T12:21:32;3.88;;;1.05;;
73382;SDS011;61600;48.126;11.542;2023-09-18T12:23:58;4.57;;;1.20;;
73382;SDS011;61600;48.126;11.542;2023-09-18T12:26:25;2.25;;;1.05;;
73382;SDS011;61600;48.126;11.542;2023-09-18T12:31:17;6.50;;;1.30;;
73382;SDS011;61600;48.126;11.542;2023-09-18T12:33:43;5.32;;;1.30;;
73382;SDS011;61600;48.126;11.542;2023-09-18T12:36:10;4.88;;;1.30;;
73382;SDS011;61600;48.126;11.542;2023-09-18T12:38:36;4.30;;;1.58;;
73382;SDS011;61600;48.126;11.542;2023-09-18T12:41:03;4.28;;;0.90;;
73382;SDS011;61600;48.126;11.542;2023-09-18T12:43:34;3.63;;;1.33;;
73382;SDS011;61600;48.126;11.542;2023-09-18T12:46:05;3.67;;;1.40;;
73382;SDS011;61600;48.126;11.542;2023-09-18T12:48:38;3.72;;;1.30;;
73382;SDS011;61600;48.126;11.542;2023-09-18T12:51:08;3.08;;;1.00;;
73382;SDS011;61600;48.126;11.542;2023-09-18T12:53:34;4.35;;;1.27;;
73382;SDS011;61600;48.126;11.542;2023-09-18T12:56:10;2.70;;;1.10;;
73382;SDS011;61600;48.126;11.542;2023-09-18T12:58:40;3.50;;;1.33;;
73382;SDS011;61600;48.126;11.542;2023-09-18T13:01:08;2.55;;;1.40;;
73382;SDS011;61600;48.126;11.542;2023-09-18T13:03:44;5.22;;;1.27;;
73382;SDS011;61600;48.126;11.542;2023-09-18T13:06:15;2.78;;;0.80;;
73382;SDS011;61600;48.126;11.542;2023-09-18T13:08:43;5.00;;;1.35;;
73382;SDS011;61600;48.126;11.542;2023-09-18T13:11:11;1.77;;;0.82;;
73382;SDS011;61600;48.126;11.542;2023-09-18T13:13:40;6.03;;;1.13;;
73382;SDS011;61600;48.126;11.542;2023-09-18T13:16:09;2.40;;;1.00;;
73382;SDS011;61600;48.126;11.542;2023-09-18T13:18:35;3.55;;;1.13;;
73382;SDS011;61600;48.126;11.542;2023-09-18T13:21:09;5.32;;;1.13;;
73382;SDS011;61600;48.126;11.542;2023-09-18T13:23:38;2.33;;;1.10;;
73382;SDS011;61600;48.126;11.542;2023-09-18T13:26:09;3.00;;;1.15;;
73382;SDS011;61600;48.126;11.542;2023-09-18T13:28:36;3.78;;;1.10;;
73382;SDS011;61600;48.126;11.542;2023-09-18T13:31:03;3.72;;;0.80;;
73382;SDS011;61600;48.126;11.542;2023-09-18T13:33:37;3.13;;;1.00;;
73382;SDS011;61600;48.126;11.542;2023-09-18T13:36:05;3.47;;;1.02;;
73382;SDS011;61600;48.126;11.542;2023-09-18T13:38:31;4.05;;;1.20;;
73382;SDS011;61600;48.126;11.542;2023-09-18T13:40:57;4.15;;;1.00;;
73382;SDS011;61600;48.126;11.542;2023-09-18T13:43:23;5.35;;;1.00;;
73382;SDS011;61600;48.126;11.542;2023-09-18T13:45:49;2.85;;;1.10;;
73382;SDS011;61600;48.126;11.542;2023-09-18T13:48:21;2.92;;;0.88;;
73382;SDS011;61600;48.126;11.542;2023-09-18T13:50:50;1.77;;;1.00;;
73382;SDS011;61600;48.126;11.542;2023-09-18T13:53:20;3.55;;;1.00;;
73382;SDS011;61600;48.126;11.542;2023-09-18T13:55:48;2.72;;;0.80;;
73382;SDS011;61600;48.126;11.542;2023-09-18T13:58:15;3.15;;;1.02;;
73382;SDS011;61600;48.126;11.542;2023-09-18T14:00:42;5.15;;;2.85;;
73382;SDS011;61600;48.126;11.542;2023-09-18T14:03:10;3.80;;;1.52;;
73382;SDS011;61600;48.126;11.542;2023-09-18T14:05:37;4.25;;;1.45;;
73382;SDS011;61600;48.126;11.542;2023-09-18T14:08:03;3.03;;;1.00;;
73382;SDS011;61600;48.126;11.542;2023-09-18T14:10:30;3.00;;;1.02;;
73382;SDS011;61600;48.126;11.542;2023-09-18T14:12:56;2.92;;;0.93;;
73382;SDS011;61600;48.126;11.542;2023-09-18T14:15:23;5.50;;;1.48;;
73382;SDS011;61600;48.126;11.542;2023-09-18T14:17:49;3.67;;;0.95;;
73382;SDS011;61600;48.126;11.542;2023-09-18T14:20:14;3.05;;;1.13;;
73382;SDS011;61600;48.126;11.542;2023-09-18T14:22:44;4.90;;;1.08;;
73382;SDS011;61600;48.126;11.542;2023-09-18T14:25:11;2.58;;;1.05;;
73382;SDS011;61600;48.126;11.542;2023-09-18T14:30:03;4.75;;;1.10;;
73382;SDS011;61600;48.126;11.542;2023-09-18T14:32:32;2.83;;;0.93;;
73382;SDS011;61600;48.126;11.542;2023-09-18T14:34:58;3.88;;;0.95;;
73382;SDS011;61600;48.126;11.542;2023-09-18T14:37:27;5.15;;;1.05;;
73382;SDS011;61600;48.126;11.542;2023-09-18T14:39:53;3.33;;;1.23;;
73382;SDS011;61600;48.126;11.542;2023-09-18T14:42:19;3.60;;;1.00;;
73382;SDS011;61600;48.126;11.542;2023-09-18T14:44:45;3.03;;;0.90;;
73382;SDS011;61600;48.126;11.542;2023-09-18T14:47:11;1.92;;;0.95;;
73382;SDS011;61600;48.126;11.542;2023-09-18T14:49:38;3.63;;;1.20;;
73382;SDS011;61600;48.126;11.542;2023-09-18T14:52:05;1.42;;;0.80;;
73382;SDS011;61600;48.126;11.542;2023-09-18T14:54:33;3.42;;;0.98;;
73382;SDS011;61600;48.126;11.542;2023-09-18T14:57:00;2.58;;;0.90;;
73382;SDS011;61600;48.126;11.542;2023-09-18T14:59:28;2.20;;;0.90;;
73382;SDS011;61600;48.126;11.542;2023-09-18T15:01:54;2.25;;;0.82;;
73382;SDS011;61600;48.126;11.542;2023-09-18T15:04:20;5.20;;;1.30;;
73382;SDS011;61600;48.126;11.542;2023-09-18T15:06:47;1.08;;;0.50;;
73382;SDS011;61600;48.126;11.542;2023-09-18T15:09:15;1.98;;;0.90;;
73382;SDS011;61600;48.126;11.542;2023-09-18T15:11:44;2.95;;;0.80;;
73382;SDS011;61600;48.126;11.542;2023-09-18T15:14:11;3.80;;;0.80;;
73382;SDS011;61600;48.126;11.542;2023-09-18T15:16:37;3.47;;;0.80;;
73382;SDS011;61600;48.126;11.542;2023-09-18T15:19:04;2.20;;;0.82;;
73382;SDS011;61600;48.126;11.542;2023-09-18T15:21:32;2.92;;;0.80;;
73382;SDS011;61600;48.126;11.542;2023-09-18T15:23:59;2.95;;;0.90;;
73382;SDS011;61600;48.126;11.542;2023-09-18T15:26:25;3.53;;;0.70;;
73382;SDS011;61600;48.126;11.542;2023-09-18T15:28:50;3.45;;;0.70;;